Time;durP1;ratioP1;P1;durP2;ratioP2;P2;SDS_P1;SDS_P2;PMS_P1;PMS_P2;Temp;Humidity;BMP_temperature;BMP_pressure;BME280_temperature;BME280_humidity;BME280_pressure;Samples;Min_cycle;Max_cycle;Signal;HPM_P1;HPM_P2
2023/01/08 00:01:53;;;;;;;5.82;2.13;;;11.40;99.90;;;;;;5073348;28;20631;-79
2023/01/08 00:04:19;;;;;;;5.80;2.28;;;11.40;99.90;;;;;;5072582;28;20187;-80
2023/01/08 00:06:44;;;;;;;3.42;1.95;;;11.50;99.90;;;;;;5072324;28;20182;-81
2023/01/08 00:09:10;;;;;;;1.00;0.98;;;11.60;99.90;;;;;;5073026;28;20206;-79
2023/01/08 00:11:37;;;;;;;3.60;1.42;;;11.10;99.90;;;;;;5071779;28;20167;-83
2023/01/08 00:14:02;;;;;;;2.35;1.02;;;10.80;99.90;;;;;;5072466;28;20194;-80
2023/01/08 00:16:28;;;;;;;6.55;1.08;;;10.50;99.90;;;;;;5073075;28;20162;-80
2023/01/08 00:18:54;;;;;;;1.65;0.45;;;10.40;99.90;;;;;;5073598;28;20623;-87
2023/01/08 00:21:19;;;;;;;3.67;0.82;;;10.30;99.90;;;;;;5073059;28;20176;-80
2023/01/08 00:23:45;;;;;;;2.72;0.85;;;10.20;99.90;;;;;;5076146;28;20296;-79
2023/01/08 00:26:12;;;;;;;0.68;0.45;;;10.00;99.90;;;;;;5076812;28;20631;-80
2023/01/08 00:28:39;;;;;;;3.83;0.90;;;9.70;99.90;;;;;;5075468;28;20289;-80
2023/01/08 00:31:06;;;;;;;1.60;0.73;;;9.80;99.90;;;;;;5075567;28;20571;-81
2023/01/08 00:33:32;;;;;;;4.40;0.82;;;9.70;99.90;;;;;;5075325;28;20276;-79
2023/01/08 00:35:58;;;;;;;4.22;0.88;;;9.60;99.90;;;;;;5075270;28;20206;-80
2023/01/08 00:38:28;;;;;;;3.00;0.80;;;9.60;99.90;;;;;;5076758;28;20653;-80
2023/01/08 00:40:55;;;;;;;3.90;0.90;;;9.50;99.90;;;;;;5076703;28;20253;-80
2023/01/08 00:43:20;;;;;;;3.25;0.65;;;9.50;99.90;;;;;;5076383;28;20220;-80
2023/01/08 00:45:46;;;;;;;2.58;0.80;;;9.50;99.90;;;;;;5076592;28;20174;-79
2023/01/08 00:48:12;;;;;;;4.28;0.85;;;9.40;99.90;;;;;;5075308;28;20623;-79
2023/01/08 00:50:37;;;;;;;3.75;0.88;;;9.30;99.90;;;;;;5076408;28;20246;-79
2023/01/08 00:53:03;;;;;;;4.13;0.60;;;9.30;99.90;;;;;;5075942;28;20166;-82
2023/01/08 00:55:29;;;;;;;2.53;0.82;;;9.40;99.90;;;;;;5080309;28;20239;-80
2023/01/08 00:57:56;;;;;;;6.18;1.20;;;9.40;99.90;;;;;;5084422;28;20206;-79
2023/01/08 01:00:23;;;;;;;4.50;0.88;;;9.50;99.90;;;;;;5082796;28;20162;-79
2023/01/08 01:02:48;;;;;;;2.22;0.80;;;9.50;99.90;;;;;;5081388;28;20579;-80
2023/01/08 01:05:15;;;;;;;3.53;0.70;;;9.60;99.90;;;;;;5079910;28;20220;-81
2023/01/08 01:07:45;;;;;;;2.97;0.47;;;9.60;99.90;;;;;;5079588;28;20198;-79
2023/01/08 01:10:13;;;;;;;8.68;0.45;;;9.70;99.90;;;;;;5080644;28;20203;-79
2023/01/08 01:12:39;;;;;;;4.28;0.70;;;9.70;99.90;;;;;;5080996;28;20173;-80
2023/01/08 01:15:09;;;;;;;2.90;1.00;;;9.80;99.90;;;;;;5081560;28;20683;-80
2023/01/08 01:17:38;;;;;;;1.58;1.00;;;9.80;99.90;;;;;;5079856;28;20532;-79
2023/01/08 01:20:05;;;;;;;4.82;1.00;;;9.70;99.90;;;;;;5079991;28;20167;-79
2023/01/08 01:22:31;;;;;;;1.63;0.80;;;9.90;99.90;;;;;;5095532;28;20157;-82
2023/01/08 01:24:57;;;;;;;2.38;0.70;;;10.00;99.90;;;;;;5092886;28;20194;-80
2023/01/08 01:27:24;;;;;;;2.65;0.73;;;10.00;99.90;;;;;;5094210;28;20193;-79
2023/01/08 01:29:51;;;;;;;3.53;0.90;;;10.10;99.90;;;;;;5094573;28;20174;-79
2023/01/08 01:32:16;;;;;;;5.93;1.08;;;10.00;99.90;;;;;;5097108;28;20171;-81
2023/01/08 01:34:42;;;;;;;1.67;0.65;;;10.00;99.90;;;;;;5094808;28;20236;-79
2023/01/08 01:37:10;;;;;;;3.08;0.80;;;10.20;99.90;;;;;;5095986;28;20242;-79
2023/01/08 01:39:36;;;;;;;1.38;0.70;;;10.30;99.90;;;;;;5090272;28;20189;-81
2023/01/08 01:42:02;;;;;;;3.45;0.77;;;10.10;99.90;;;;;;5095791;28;20222;-80
2023/01/08 01:44:44;;;;;;;1.65;0.52;;;10.20;99.90;;;;;;5091581;28;20238;-80
2023/01/08 01:47:34;;;;;;;4.85;0.80;;;10.20;99.90;;;;;;5096083;28;20167;-79
2023/01/08 01:50:11;;;;;;;0.95;0.95;;;10.40;99.90;;;;;;5070908;28;20174;-80
2023/01/08 01:52:41;;;;;;;2.05;0.88;;;10.30;99.90;;;;;;5074562;28;20197;-79
2023/01/08 01:55:10;;;;;;;2.70;1.25;;;10.30;99.90;;;;;;5074958;28;20178;-80
2023/01/08 01:57:36;;;;;;;2.88;1.00;;;10.30;99.90;;;;;;5073541;28;20194;-80
2023/01/08 02:00:05;;;;;;;2.33;1.30;;;10.40;99.90;;;;;;5074653;28;20503;-80
2023/01/08 02:02:31;;;;;;;8.73;1.48;;;10.40;99.90;;;;;;5074798;28;20169;-80
2023/01/08 02:04:58;;;;;;;2.17;0.80;;;10.40;99.90;;;;;;5074870;28;20934;-80
2023/01/08 02:07:52;;;;;;;1.45;0.95;;;10.50;99.90;;;;;;5074788;28;20223;-79
2023/01/08 02:10:23;;;;;;;5.18;1.35;;;10.40;99.90;;;;;;5075462;28;20166;-80
2023/01/08 02:13:12;;;;;;;2.05;1.00;;;10.40;99.90;;;;;;5084793;28;20171;-80
2023/01/08 02:15:41;;;;;;;1.13;0.75;;;10.30;99.90;;;;;;5090997;28;20179;-80
2023/01/08 02:18:11;;;;;;;2.90;1.55;;;10.30;99.90;;;;;;5075329;28;20220;-79
2023/01/08 02:20:42;;;;;;;2.13;1.38;;;10.40;99.90;;;;;;5074236;28;20252;-79
2023/01/08 02:23:30;;;;;;;10.75;1.33;;;10.40;99.90;;;;;;5074336;28;20171;-79
2023/01/08 02:26:14;;;;;;;1.23;1.00;;;10.30;99.90;;;;;;5073939;28;20167;-80
2023/01/08 02:28:46;;;;;;;3.92;1.60;;;10.50;99.90;;;;;;5072683;28;20765;-80
2023/01/08 02:31:12;;;;;;;2.30;1.35;;;10.70;99.90;;;;;;5072691;28;20265;-80
2023/01/08 02:33:38;;;;;;;5.40;1.80;;;10.60;99.90;;;;;;5074127;28;20865;-79
2023/01/08 02:36:32;;;;;;;5.90;1.75;;;10.60;99.90;;;;;;5074000;28;20253;-80
2023/01/08 02:39:26;;;;;;;6.15;1.30;;;10.40;99.90;;;;;;5073933;28;20178;-80
2023/01/08 02:42:03;;;;;;;1.85;1.60;;;10.10;99.90;;;;;;5073829;28;20170;-79
2023/01/08 02:44:40;;;;;;;3.85;1.67;;;10.20;99.90;;;;;;5073300;28;20271;-80
2023/01/08 02:47:24;;;;;;;3.47;1.95;;;10.20;99.90;;;;;;5073570;28;20591;-79
2023/01/08 02:50:01;;;;;;;5.05;1.83;;;10.10;99.90;;;;;;5072283;28;20178;-79
2023/01/08 02:52:33;;;;;;;3.50;1.00;;;10.10;99.90;;;;;;5073639;28;20214;-80
2023/01/08 02:55:00;;;;;;;3.67;0.90;;;10.10;99.90;;;;;;5071831;28;20198;-81
2023/01/08 02:57:29;;;;;;;2.80;0.80;;;10.10;99.90;;;;;;5073544;28;20183;-80
2023/01/08 02:59:56;;;;;;;1.25;0.90;;;10.00;99.90;;;;;;5072430;28;20163;-79
2023/01/08 03:02:22;;;;;;;1.50;1.08;;;9.90;99.90;;;;;;5073006;28;20174;-79
2023/01/08 03:05:00;;;;;;;2.17;0.88;;;10.10;99.90;;;;;;5072970;28;20193;-79
2023/01/08 03:07:26;;;;;;;1.20;0.68;;;10.20;99.90;;;;;;5073195;28;20170;-79
2023/01/08 03:09:51;;;;;;;1.17;0.95;;;10.20;99.90;;;;;;5073132;28;20181;-79
2023/01/08 03:12:33;;;;;;;0.90;0.90;;;10.20;99.90;;;;;;5072964;28;20616;-80
2023/01/08 03:15:05;;;;;;;0.80;0.80;;;10.30;99.90;;;;;;5072999;28;20178;-79
2023/01/08 03:17:34;;;;;;;2.00;0.90;;;10.40;99.90;;;;;;5073153;28;20162;-80
2023/01/08 03:20:06;;;;;;;1.50;0.90;;;10.50;99.90;;;;;;5073050;28;20223;-81
2023/01/08 03:22:35;;;;;;;4.38;1.75;;;10.40;99.90;;;;;;5073215;28;20174;-79
2023/01/08 03:25:04;;;;;;;1.50;1.40;;;10.30;99.90;;;;;;5072937;28;20182;-79
2023/01/08 03:27:33;;;;;;;1.85;1.08;;;10.30;99.90;;;;;;5071553;28;20170;-80
2023/01/08 03:29:59;;;;;;;7.10;1.35;;;10.30;99.90;;;;;;5071505;28;20178;-80
2023/01/08 03:32:27;;;;;;;3.47;1.10;;;10.30;99.90;;;;;;5072915;28;20176;-80
2023/01/08 03:34:55;;;;;;;1.05;0.95;;;10.40;99.90;;;;;;5072691;28;20179;-79
2023/01/08 03:37:33;;;;;;;3.35;1.48;;;10.40;99.90;;;;;;5071386;28;20540;-79
2023/01/08 03:40:21;;;;;;;2.05;1.35;;;10.30;99.90;;;;;;5072392;28;20163;-79
2023/01/08 03:42:47;;;;;;;1.55;1.00;;;10.30;99.90;;;;;;5072777;28;20170;-81
2023/01/08 03:45:12;;;;;;;2.70;1.42;;;10.10;99.90;;;;;;5072639;28;20182;-79
2023/01/08 03:47:39;;;;;;;3.17;1.73;;;10.10;99.90;;;;;;5072711;28;20585;-79
2023/01/08 03:50:09;;;;;;;6.20;1.27;;;10.20;99.90;;;;;;5072478;28;20169;-79
2023/01/08 03:52:35;;;;;;;4.28;0.95;;;10.00;99.90;;;;;;5072788;28;20578;-79
2023/01/08 03:55:01;;;;;;;3.67;1.20;;;10.00;99.90;;;;;;5071309;28;20218;-79
2023/01/08 03:57:26;;;;;;;4.57;1.08;;;10.00;99.90;;;;;;5072059;28;20170;-79
2023/01/08 03:59:52;;;;;;;2.70;0.90;;;10.00;99.90;;;;;;5071251;28;20654;-79
2023/01/08 04:02:18;;;;;;;5.00;1.52;;;10.00;99.90;;;;;;5072505;28;20163;-83
2023/01/08 04:04:43;;;;;;;5.80;1.33;;;10.10;99.90;;;;;;5072654;28;20186;-80
2023/01/08 04:07:10;;;;;;;7.68;1.02;;;10.10;99.90;;;;;;5072664;28;20159;-80
2023/01/08 04:09:36;;;;;;;2.42;1.15;;;10.10;99.90;;;;;;5070940;28;20214;-79
2023/01/08 04:12:02;;;;;;;3.95;1.35;;;9.90;99.90;;;;;;5072632;28;20623;-80
2023/01/08 04:14:27;;;;;;;4.47;0.90;;;9.90;99.90;;;;;;5072628;28;20190;-79
2023/01/08 04:16:53;;;;;;;9.63;1.45;;;9.90;99.90;;;;;;5072497;28;20163;-80
2023/01/08 04:19:18;;;;;;;4.40;1.00;;;9.90;99.90;;;;;;5072326;28;20166;-84
2023/01/08 04:21:44;;;;;;;11.93;1.35;;;9.80;99.90;;;;;;5072402;28;20252;-80
2023/01/08 04:24:11;;;;;;;6.15;1.30;;;9.70;99.90;;;;;;5072437;28;20190;-79
2023/01/08 04:26:36;;;;;;;6.38;1.02;;;9.70;99.90;;;;;;5072366;28;20174;-79
2023/01/08 04:29:03;;;;;;;6.28;1.30;;;9.70;99.90;;;;;;5072356;28;20568;-80
2023/01/08 04:31:29;;;;;;;4.93;1.50;;;9.70;99.90;;;;;;5072299;28;20165;-79
2023/01/08 04:33:55;;;;;;;17.73;1.70;;;9.60;99.90;;;;;;5071185;28;20186;-80
2023/01/08 04:36:21;;;;;;;6.35;1.25;;;9.50;99.90;;;;;;5072423;28;20325;-79
2023/01/08 04:38:46;;;;;;;13.18;1.35;;;9.40;99.90;;;;;;5072436;28;20523;-79
2023/01/08 04:41:12;;;;;;;7.45;1.00;;;9.20;99.90;;;;;;5072115;28;20249;-80
2023/01/08 04:43:37;;;;;;;10.15;1.10;;;9.20;99.90;;;;;;5072001;28;20558;-79
2023/01/08 04:46:06;;;;;;;11.27;1.50;;;9.20;99.90;;;;;;5071152;28;20170;-80
2023/01/08 04:48:32;;;;;;;16.20;1.73;;;9.20;99.90;;;;;;5072209;28;20232;-80
2023/01/08 04:50:59;;;;;;;5.85;1.45;;;9.20;99.90;;;;;;5071996;28;20162;-79
2023/01/08 04:53:25;;;;;;;4.07;1.13;;;9.30;99.90;;;;;;5072105;28;20187;-80
2023/01/08 04:55:51;;;;;;;5.50;1.35;;;9.20;99.90;;;;;;5072021;28;20257;-80
2023/01/08 04:58:16;;;;;;;16.55;1.65;;;9.10;99.90;;;;;;5070672;28;20874;-79
2023/01/08 05:00:42;;;;;;;8.98;1.75;;;9.10;99.90;;;;;;5071944;28;20228;-80
2023/01/08 05:03:08;;;;;;;5.90;1.10;;;9.20;99.90;;;;;;5071933;28;20170;-80
2023/01/08 05:05:34;;;;;;;5.75;1.20;;;9.20;99.90;;;;;;5071788;28;20166;-79
2023/01/08 05:08:00;;;;;;;3.70;1.23;;;9.20;99.90;;;;;;5072153;28;20213;-80
2023/01/08 05:10:25;;;;;;;7.03;1.08;;;9.10;99.90;;;;;;5074141;28;20167;-80
2023/01/08 05:12:51;;;;;;;6.93;1.45;;;9.10;99.90;;;;;;5075668;28;20235;-79
2023/01/08 05:15:16;;;;;;;2.78;1.05;;;9.00;99.90;;;;;;5074103;28;20277;-80
2023/01/08 05:17:42;;;;;;;13.15;1.23;;;8.90;99.90;;;;;;5075324;28;20170;-79
2023/01/08 05:20:08;;;;;;;4.00;1.30;;;9.00;99.90;;;;;;5075584;28;20166;-82
2023/01/08 05:22:34;;;;;;;11.77;1.48;;;9.00;99.90;;;;;;5075280;28;20200;-81
2023/01/08 05:24:59;;;;;;;7.28;0.85;;;8.90;99.90;;;;;;5075263;28;20732;-81
2023/01/08 05:27:27;;;;;;;12.80;2.30;;;8.90;99.90;;;;;;5073906;28;20258;-79
2023/01/08 05:29:53;;;;;;;8.88;1.27;;;8.90;99.90;;;;;;5075190;28;20173;-79
2023/01/08 05:32:18;;;;;;;9.43;1.30;;;8.90;99.90;;;;;;5075242;28;20178;-79
2023/01/08 05:34:44;;;;;;;8.00;1.15;;;8.70;99.90;;;;;;5075036;28;20190;-79
2023/01/08 05:37:10;;;;;;;6.50;1.20;;;8.60;99.90;;;;;;5073835;28;20257;-79
2023/01/08 05:39:36;;;;;;;7.25;1.10;;;8.60;99.90;;;;;;5075165;28;20254;-80
2023/01/08 05:42:02;;;;;;;4.55;1.23;;;8.60;99.90;;;;;;5075046;28;20181;-79
2023/01/08 05:44:28;;;;;;;8.77;1.40;;;8.70;99.90;;;;;;5074844;28;20203;-79
2023/01/08 05:46:53;;;;;;;15.48;1.30;;;8.80;99.90;;;;;;5075170;28;20178;-80
2023/01/08 05:49:22;;;;;;;14.13;1.50;;;8.80;99.90;;;;;;5074852;28;20237;-79
2023/01/08 05:51:48;;;;;;;4.65;1.20;;;8.80;99.90;;;;;;5074989;28;20211;-79
2023/01/08 05:54:14;;;;;;;8.45;1.17;;;8.80;99.90;;;;;;5075556;28;20720;-79
2023/01/08 05:56:42;;;;;;;7.38;1.23;;;8.90;99.90;;;;;;5074600;28;20254;-79
2023/01/08 05:59:10;;;;;;;6.50;1.80;;;9.00;99.90;;;;;;5074486;28;20170;-80
2023/01/08 06:01:36;;;;;;;10.18;1.98;;;9.00;99.90;;;;;;5074676;28;20216;-80
2023/01/08 06:04:01;;;;;;;6.50;1.27;;;9.00;99.90;;;;;;5074812;28;20281;-79
2023/01/08 06:06:27;;;;;;;17.15;1.40;;;8.90;99.90;;;;;;5074652;28;20162;-80
2023/01/08 06:08:52;;;;;;;15.63;1.50;;;8.80;99.90;;;;;;5074493;28;20202;-80
2023/01/08 06:11:18;;;;;;;7.25;1.00;;;8.70;99.90;;;;;;5074570;28;20566;-79
2023/01/08 06:13:44;;;;;;;5.93;1.20;;;8.60;99.90;;;;;;5074602;28;20194;-79
2023/01/08 06:16:11;;;;;;;5.25;0.82;;;8.60;99.90;;;;;;5073184;28;20210;-79
2023/01/08 06:18:36;;;;;;;6.32;1.20;;;8.70;99.90;;;;;;5074324;28;20686;-80
2023/01/08 06:21:04;;;;;;;4.20;1.02;;;8.80;99.90;;;;;;5073611;28;20241;-79
2023/01/08 06:23:30;;;;;;;3.30;1.00;;;8.80;99.90;;;;;;5074365;28;20267;-79
2023/01/08 06:25:57;;;;;;;3.92;1.17;;;8.70;99.90;;;;;;5072970;28;20173;-80
2023/01/08 06:28:23;;;;;;;10.70;1.05;;;8.80;99.90;;;;;;5073528;28;20202;-78
2023/01/08 06:30:49;;;;;;;5.47;1.25;;;8.70;99.90;;;;;;5074003;28;20702;-80
2023/01/08 06:33:15;;;;;;;11.75;1.50;;;8.80;99.90;;;;;;5073680;28;20166;-80
2023/01/08 06:35:40;;;;;;;4.82;0.95;;;8.70;99.90;;;;;;5074092;28;20232;-80
2023/01/08 06:38:06;;;;;;;2.85;0.98;;;8.80;99.90;;;;;;5074215;28;20167;-79
2023/01/08 06:40:32;;;;;;;9.63;1.40;;;8.70;99.90;;;;;;5074276;28;20619;-79
2023/01/08 06:43:03;;;;;;;9.77;1.60;;;8.80;99.90;;;;;;5073620;28;20213;-79
2023/01/08 06:45:29;;;;;;;6.28;1.35;;;8.80;99.90;;;;;;5073667;28;20166;-79
2023/01/08 06:47:54;;;;;;;6.25;1.10;;;8.80;99.90;;;;;;5073519;28;20343;-81
2023/01/08 06:50:20;;;;;;;10.85;1.58;;;8.80;99.90;;;;;;5073553;28;20190;-84
2023/01/08 06:52:53;;;;;;;5.30;1.67;;;8.90;99.90;;;;;;5074107;28;20171;-87
2023/01/08 06:55:19;;;;;;;10.55;2.13;;;8.80;99.90;;;;;;5073436;28;20179;-78
2023/01/08 06:57:45;;;;;;;6.75;1.30;;;8.80;99.90;;;;;;5073422;28;20162;-78
2023/01/08 07:00:11;;;;;;;5.18;1.00;;;8.90;99.90;;;;;;5073302;28;20177;-79
2023/01/08 07:02:37;;;;;;;6.75;1.55;;;8.90;99.90;;;;;;5073447;28;20163;-79
2023/01/08 07:05:02;;;;;;;1.48;0.82;;;8.90;99.90;;;;;;5072335;28;20195;-78
2023/01/08 07:07:28;;;;;;;2.15;1.00;;;9.00;99.90;;;;;;5073504;28;20244;-79
2023/01/08 07:09:54;;;;;;;20.85;2.00;;;9.00;99.90;;;;;;5071732;28;20178;-78
2023/01/08 07:12:19;;;;;;;5.75;1.48;;;8.90;99.90;;;;;;5071743;28;20580;-79
2023/01/08 07:14:45;;;;;;;11.52;2.00;;;8.80;99.90;;;;;;5073142;28;20654;-79
2023/01/08 07:17:10;;;;;;;13.50;1.42;;;8.90;99.90;;;;;;5073148;28;20218;-80
2023/01/08 07:19:36;;;;;;;12.88;1.80;;;9.00;99.90;;;;;;5072907;28;20162;-79
2023/01/08 07:22:02;;;;;;;15.68;1.60;;;9.00;99.90;;;;;;5072666;28;20174;-79
2023/01/08 07:24:28;;;;;;;6.15;1.20;;;9.00;99.90;;;;;;5071602;28;20205;-80
2023/01/08 07:26:53;;;;;;;8.93;1.60;;;9.10;99.90;;;;;;5073000;28;20525;-84
2023/01/08 07:29:19;;;;;;;11.57;2.00;;;9.10;99.90;;;;;;5072964;28;20209;-80
2023/01/08 07:31:45;;;;;;;5.38;1.20;;;9.10;99.90;;;;;;5072024;28;20167;-80
2023/01/08 07:34:10;;;;;;;6.57;1.70;;;9.00;99.90;;;;;;5072404;28;21221;-79
2023/01/08 07:36:36;;;;;;;7.43;1.40;;;9.10;99.90;;;;;;5073081;28;20650;-82
2023/01/08 07:39:02;;;;;;;4.78;1.58;;;9.30;99.90;;;;;;5072121;28;20175;-80
2023/01/08 07:41:28;;;;;;;7.05;1.23;;;9.40;99.90;;;;;;5072509;28;20245;-83
2023/01/08 07:43:53;;;;;;;12.57;2.50;;;9.30;99.90;;;;;;5072755;28;20206;-81
2023/01/08 07:46:19;;;;;;;8.52;1.48;;;9.20;99.90;;;;;;5072778;28;20170;-80
2023/01/08 07:48:45;;;;;;;13.90;2.13;;;9.30;99.90;;;;;;5072499;28;20302;-79
2023/01/08 07:51:11;;;;;;;7.93;2.05;;;9.30;99.90;;;;;;5072347;28;20170;-78
2023/01/08 07:53:37;;;;;;;5.63;1.60;;;9.30;99.90;;;;;;5072132;28;20195;-78
2023/01/08 07:56:05;;;;;;;13.15;1.38;;;9.20;99.90;;;;;;5072340;28;20684;-79
2023/01/08 07:58:31;;;;;;;14.20;2.22;;;9.30;99.90;;;;;;5072410;28;20546;-78
2023/01/08 08:00:57;;;;;;;11.18;1.58;;;9.20;99.90;;;;;;5072961;28;20154;-79
2023/01/08 08:03:23;;;;;;;5.95;1.98;;;9.40;99.90;;;;;;5072496;28;20202;-88
2023/01/08 08:05:48;;;;;;;7.22;1.40;;;9.40;99.90;;;;;;5071400;28;20170;-79
2023/01/08 08:08:14;;;;;;;2.80;1.25;;;9.40;99.90;;;;;;5070987;28;20289;-81
2023/01/08 08:10:41;;;;;;;10.65;1.90;;;9.40;99.90;;;;;;5073361;28;20170;-81
2023/01/08 08:13:07;;;;;;;5.63;1.42;;;9.50;99.90;;;;;;5072631;28;20201;-82
2023/01/08 08:15:33;;;;;;;4.00;1.58;;;9.40;99.90;;;;;;5072740;28;20517;-81
2023/01/08 08:17:59;;;;;;;7.57;1.50;;;9.60;99.90;;;;;;5072908;28;20167;-80
2023/01/08 08:20:25;;;;;;;5.65;1.40;;;9.60;99.90;;;;;;5071541;28;20257;-82
2023/01/08 08:22:51;;;;;;;11.23;2.10;;;9.50;99.90;;;;;;5071495;28;20540;-86
2023/01/08 08:25:17;;;;;;;11.57;2.25;;;9.40;99.90;;;;;;5071046;28;20189;-84
2023/01/08 08:27:43;;;;;;;4.75;1.38;;;9.40;99.90;;;;;;5072254;28;20192;-79
2023/01/08 08:30:10;;;;;;;4.20;1.52;;;9.50;99.90;;;;;;5072671;28;20198;-79
2023/01/08 08:32:36;;;;;;;5.07;1.40;;;9.50;99.90;;;;;;5070878;28;20166;-79
2023/01/08 08:35:03;;;;;;;7.40;2.00;;;9.60;99.90;;;;;;5071088;28;20190;-80
2023/01/08 08:37:29;;;;;;;3.25;1.15;;;9.50;99.90;;;;;;5072102;28;20220;-80
2023/01/08 08:39:54;;;;;;;9.25;1.95;;;9.50;99.90;;;;;;5070178;28;20170;-79
2023/01/08 08:42:20;;;;;;;6.55;2.28;;;9.50;99.90;;;;;;5071647;28;20202;-79
2023/01/08 08:44:46;;;;;;;4.63;1.35;;;9.50;99.90;;;;;;5074738;28;20213;-79
2023/01/08 08:47:11;;;;;;;6.20;1.20;;;9.60;99.90;;;;;;5075608;28;20258;-80
2023/01/08 08:49:37;;;;;;;3.92;1.55;;;9.50;99.90;;;;;;5075694;28;20213;-79
2023/01/08 08:52:03;;;;;;;6.95;1.25;;;9.40;99.90;;;;;;5075685;28;20241;-79
2023/01/08 08:54:29;;;;;;;11.23;1.90;;;9.40;99.90;;;;;;5075655;28;20186;-78
2023/01/08 08:56:54;;;;;;;3.78;1.35;;;9.40;99.90;;;;;;5075788;28;20227;-79
2023/01/08 08:59:20;;;;;;;2.90;1.30;;;9.20;99.90;;;;;;5075800;28;20257;-82
2023/01/08 09:01:46;;;;;;;3.42;1.13;;;9.20;99.90;;;;;;5076355;28;20166;-85
2023/01/08 09:04:11;;;;;;;2.85;0.98;;;9.30;99.90;;;;;;5076206;28;20186;-85
2023/01/08 09:06:37;;;;;;;3.20;1.05;;;9.50;99.90;;;;;;5076401;28;20503;-84
2023/01/08 09:09:03;;;;;;;1.83;1.13;;;9.50;99.90;;;;;;5075615;28;20322;-82
2023/01/08 09:11:29;;;;;;;3.08;1.00;;;9.70;99.90;;;;;;5058444;28;20283;-83
2023/01/08 09:13:55;;;;;;;4.97;2.22;;;9.40;99.90;;;;;;5074850;28;20253;-81
2023/01/08 09:16:20;;;;;;;2.78;1.90;;;9.50;99.90;;;;;;5074265;28;20220;-82
2023/01/08 09:18:47;;;;;;;0.93;0.75;;;9.60;99.90;;;;;;5076500;28;20166;-81
2023/01/08 09:21:13;;;;;;;0.47;0.43;;;9.60;99.90;;;;;;5074238;28;20166;-80
2023/01/08 09:23:39;;;;;;;0.47;0.47;;;9.60;99.90;;;;;;5075180;28;20190;-85
2023/01/08 09:26:05;;;;;;;0.75;0.70;;;9.70;99.90;;;;;;5075901;28;20170;-81
2023/01/08 09:28:31;;;;;;;1.58;0.57;;;9.60;99.90;;;;;;5074142;28;20210;-80
2023/01/08 09:31:00;;;;;;;1.90;0.70;;;9.50;99.90;;;;;;5075693;28;20159;-85
2023/01/08 09:33:26;;;;;;;2.10;0.77;;;9.60;99.90;;;;;;5074661;28;20208;-82
2023/01/08 09:35:51;;;;;;;1.67;0.65;;;9.60;99.90;;;;;;5075664;28;20249;-81
2023/01/08 09:38:17;;;;;;;1.80;0.60;;;9.60;99.90;;;;;;5075532;28;20617;-81
2023/01/08 09:40:53;;;;;;;1.17;0.85;;;9.60;99.90;;;;;;5073902;28;20184;-83
2023/01/08 09:43:21;;;;;;;0.65;0.50;;;9.70;99.90;;;;;;5074874;28;20670;-81
2023/01/08 09:45:54;;;;;;;1.15;0.65;;;9.70;99.90;;;;;;5074346;28;20190;-82
2023/01/08 09:48:25;;;;;;;2.05;0.70;;;9.70;99.90;;;;;;5075800;28;20214;-88
2023/01/08 09:50:51;;;;;;;0.50;0.50;;;9.80;99.90;;;;;;5075788;28;20549;-84
2023/01/08 09:53:17;;;;;;;0.60;0.60;;;9.80;99.90;;;;;;5075089;28;20174;-82
2023/01/08 09:55:47;;;;;;;0.95;0.55;;;9.80;99.90;;;;;;5072451;28;20167;-82
2023/01/08 09:58:26;;;;;;;1.02;0.60;;;9.70;99.90;;;;;;5074439;28;20253;-82
2023/01/08 10:00:53;;;;;;;5.70;0.70;;;9.70;99.90;;;;;;5073249;28;20178;-83
2023/01/08 10:03:36;;;;;;;2.13;0.60;;;9.70;99.90;;;;;;5078618;28;20216;-82
2023/01/08 10:06:08;;;;;;;3.47;0.85;;;9.70;99.90;;;;;;5075988;28;20189;-83
2023/01/08 10:08:34;;;;;;;1.75;0.50;;;9.60;99.90;;;;;;5074421;28;20289;-83
2023/01/08 10:10:59;;;;;;;0.68;0.63;;;9.70;99.90;;;;;;5074235;28;20808;-81
2023/01/08 10:13:25;;;;;;;2.22;0.80;;;9.80;99.90;;;;;;5067128;28;20337;-81
2023/01/08 10:15:51;;;;;;;0.70;0.70;;;9.70;99.90;;;;;;5059206;28;20311;-83
2023/01/08 10:18:22;;;;;;;3.63;1.63;;;9.70;99.90;;;;;;5055051;28;20285;-84
2023/01/08 10:20:47;;;;;;;5.55;1.08;;;9.70;99.90;;;;;;5055312;28;20166;-82
2023/01/08 10:23:19;;;;;;;3.55;0.70;;;9.90;99.90;;;;;;5064965;28;20202;-81
2023/01/08 10:26:01;;;;;;;2.63;0.60;;;10.00;99.90;;;;;;5061595;28;20650;-83
2023/01/08 10:28:34;;;;;;;1.45;0.80;;;10.00;99.90;;;;;;5053274;28;20203;-84
2023/01/08 10:31:07;;;;;;;2.92;1.30;;;10.00;99.90;;;;;;5067440;28;20396;-83
2023/01/08 10:33:44;;;;;;;1.30;0.82;;;10.10;99.90;;;;;;5071827;28;20198;-84
2023/01/08 10:36:14;;;;;;;1.23;0.70;;;10.10;99.90;;;;;;5070834;28;20722;-88
2023/01/08 10:38:57;;;;;;;1.52;0.90;;;10.20;99.90;;;;;;5068070;28;20235;-86
2023/01/08 10:41:23;;;;;;;3.92;1.20;;;10.20;99.90;;;;;;5057059;28;20175;-81
2023/01/08 10:44:04;;;;;;;4.13;0.80;;;10.20;99.90;;;;;;5059978;28;20667;-82
2023/01/08 10:46:35;;;;;;;7.55;2.38;;;10.10;99.90;;;;;;5053280;28;20639;-81
2023/01/08 10:49:04;;;;;;;6.20;1.63;;;10.10;99.90;;;;;;5056275;28;20265;-81
2023/01/08 10:51:31;;;;;;;7.90;1.38;;;10.10;99.90;;;;;;5067147;28;20201;-84
2023/01/08 10:54:13;;;;;;;0.98;0.70;;;10.30;99.90;;;;;;5069358;28;20199;-82
2023/01/08 10:56:43;;;;;;;3.08;1.38;;;10.30;99.90;;;;;;5053459;28;20270;-86
2023/01/08 10:59:20;;;;;;;4.05;0.88;;;10.40;99.90;;;;;;5063355;28;20257;-85
2023/01/08 11:01:47;;;;;;;5.60;0.88;;;10.40;99.90;;;;;;5064841;28;20183;-82
2023/01/08 11:04:22;;;;;;;4.47;1.00;;;10.40;99.90;;;;;;5058218;28;20236;-81
2023/01/08 11:06:48;;;;;;;3.63;1.08;;;10.50;99.90;;;;;;5056842;28;20233;-81
2023/01/08 11:09:38;;;;;;;11.23;1.40;;;10.50;99.90;;;;;;5057960;28;20229;-82
2023/01/08 11:12:19;;;;;;;4.07;0.90;;;10.60;99.90;;;;;;5055859;28;20250;-79
2023/01/08 11:14:45;;;;;;;4.22;1.10;;;10.70;99.90;;;;;;5061454;28;20194;-80
2023/01/08 11:17:11;;;;;;;5.88;0.90;;;10.70;99.90;;;;;;5055253;28;20184;-79
2023/01/08 11:19:38;;;;;;;3.58;0.90;;;10.70;99.90;;;;;;5065590;28;20177;-80
2023/01/08 11:22:24;;;;;;;4.25;1.73;;;10.80;99.90;;;;;;5072321;28;20174;-79
2023/01/08 11:24:51;;;;;;;2.58;1.30;;;10.80;99.90;;;;;;5071354;28;20198;-81
2023/01/08 11:27:30;;;;;;;4.13;1.30;;;10.80;99.90;;;;;;5054531;28;20190;-82
2023/01/08 11:30:34;;;;;;;8.38;1.30;;;10.90;99.90;;;;;;5053948;28;20206;-80
2023/01/08 11:33:11;;;;;;;3.30;1.15;;;10.90;99.90;;;;;;5060891;28;20281;-83
2023/01/08 11:35:47;;;;;;;1.48;0.88;;;10.80;99.90;;;;;;5063371;28;20190;-84
2023/01/08 11:38:13;;;;;;;7.43;0.93;;;10.90;99.90;;;;;;5057188;28;20186;-84
2023/01/08 11:41:01;;;;;;;4.07;1.58;;;10.80;99.90;;;;;;5067258;28;20621;-80
2023/01/08 11:43:39;;;;;;;5.22;2.95;;;10.90;99.90;;;;;;5055180;28;20685;-80
2023/01/08 11:46:22;;;;;;;3.03;1.23;;;10.90;99.90;;;;;;5055637;28;20682;-80
2023/01/08 11:49:15;;;;;;;6.68;2.42;;;11.00;99.90;;;;;;5054280;28;20540;-81
2023/01/08 11:51:59;;;;;;;4.28;1.60;;;10.90;99.90;;;;;;5058461;28;20184;-81
2023/01/08 11:54:49;;;;;;;3.70;2.13;;;11.10;99.90;;;;;;5053322;28;20244;-79
2023/01/08 11:57:36;;;;;;;5.60;1.67;;;11.00;99.90;;;;;;5054168;28;20249;-81
2023/01/08 12:00:11;;;;;;;5.43;1.33;;;11.00;99.90;;;;;;5057418;28;20170;-81
2023/01/08 12:02:53;;;;;;;5.68;2.28;;;11.10;99.90;;;;;;5061105;28;20187;-81
2023/01/08 12:05:25;;;;;;;7.68;2.45;;;11.10;99.90;;;;;;5061427;28;20269;-81
2023/01/08 12:07:58;;;;;;;9.43;4.65;;;11.10;99.90;;;;;;5050650;28;20179;-80
2023/01/08 12:10:42;;;;;;;12.60;3.33;;;11.30;99.90;;;;;;5052576;28;20252;-81
2023/01/08 12:13:45;;;;;;;6.35;1.38;;;11.50;99.90;;;;;;5056462;28;20181;-82
2023/01/08 12:16:58;;;;;;;5.20;1.73;;;11.50;99.90;;;;;;5050905;28;20622;-81
2023/01/08 12:19:33;;;;;;;5.30;1.20;;;11.70;99.90;;;;;;5044145;28;20179;-81
2023/01/08 12:22:05;;;;;;;4.72;1.45;;;11.70;99.90;;;;;;5061927;28;20238;-82
2023/01/08 12:25:02;;;;;;;5.13;1.73;;;11.40;99.90;;;;;;5058285;28;20656;-81
2023/01/08 12:27:32;;;;;;;1.85;1.20;;;11.30;99.90;;;;;;5062183;28;20241;-83
2023/01/08 12:30:03;;;;;;;4.75;1.40;;;11.20;99.90;;;;;;5064311;28;20675;-82
2023/01/08 12:32:39;;;;;;;5.28;1.05;;;11.30;99.90;;;;;;5087757;28;20217;-86
2023/01/08 12:35:19;;;;;;;2.90;1.10;;;11.50;99.90;;;;;;5061863;28;20293;-83
2023/01/08 12:37:51;;;;;;;2.20;1.10;;;11.60;99.90;;;;;;5061301;28;20186;-81
2023/01/08 12:40:55;;;;;;;4.15;1.48;;;11.60;99.90;;;;;;5056148;28;20170;-80
2023/01/08 12:43:30;;;;;;;2.78;1.38;;;11.50;99.90;;;;;;5055345;28;20683;-81
2023/01/08 12:46:00;;;;;;;5.05;1.52;;;11.40;99.90;;;;;;5055980;28;20257;-80
2023/01/08 12:48:35;;;;;;;4.57;0.98;;;11.40;99.90;;;;;;5063933;28;20711;-80
2023/01/08 12:51:17;;;;;;;4.57;1.30;;;11.30;99.90;;;;;;5062897;28;20177;-83
2023/01/08 12:53:48;;;;;;;6.80;1.40;;;11.30;99.90;;;;;;5062613;28;20214;-81
2023/01/08 12:56:39;;;;;;;4.85;1.40;;;11.40;99.90;;;;;;5061080;28;20183;-80
2023/01/08 12:59:38;;;;;;;5.55;1.05;;;11.60;99.90;;;;;;5055535;28;20173;-79
2023/01/08 13:02:13;;;;;;;2.13;0.88;;;11.60;99.90;;;;;;5056043;28;20225;-79
2023/01/08 13:04:43;;;;;;;8.52;2.33;;;11.50;99.90;;;;;;5054342;28;20199;-78